Time;durP1;ratioP1;P1;durP2;ratioP2;P2;SDS_P1;SDS_P2;PMS_P1;PMS_P2;Temp;Humidity;BMP_temperature;BMP_pressure;BME280_temperature;BME280_humidity;BME280_pressure;Samples;Min_cycle;Max_cycle;Signal;HPM_P1;HPM_P2
2022/11/11 00:02:21;;;;;;;23.98;11.25;;;;;;;-142.75;100.00;78383.66;5061163;28;20020;-66
2022/11/11 00:04:46;;;;;;;21.88;10.70;;;;;;;-142.75;100.00;78381.69;5079601;28;20478;-65
2022/11/11 00:07:12;;;;;;;25.23;11.80;;;;;;;-142.75;100.00;78385.63;5060279;28;20034;-68
2022/11/11 00:09:37;;;;;;;25.63;11.02;;;;;;;-142.75;100.00;78391.53;5080608;28;20024;-66
2022/11/11 00:12:02;;;;;;;22.60;12.75;;;;;;;-142.75;100.00;78381.69;5078514;28;20048;-65
2022/11/11 00:14:27;;;;;;;24.67;12.65;;;;;;;-142.75;100.00;78395.47;5079153;28;20024;-67
2022/11/11 00:25:06;;;;;;;25.75;12.27;;;;;;;-142.75;100.00;78401.38;5098737;28;20108;-70
2022/11/11 00:27:31;;;;;;;30.25;12.75;;;;;;;-142.75;100.00;78397.44;5098727;28;20015;-68
2022/11/11 00:29:56;;;;;;;22.20;12.18;;;;;;;-142.75;100.00;78397.44;5098869;28;20051;-69
2022/11/11 00:32:22;;;;;;;25.08;12.95;;;;;;;-142.75;100.00;78409.28;5080829;28;20031;-68
2022/11/11 00:37:33;;;;;;;27.77;12.85;;;;;;;-142.75;100.00;78397.44;5098799;28;20451;-68
2022/11/11 00:39:58;;;;;;;31.52;13.40;;;;;;;-142.75;100.00;78395.47;5099551;28;20028;-68
2022/11/11 00:42:24;;;;;;;21.45;11.70;;;;;;;-142.75;100.00;78389.56;5099248;28;20027;-69
2022/11/11 00:44:49;;;;;;;24.10;12.85;;;;;;;-142.75;100.00;78395.47;5098555;28;20452;-69
2022/11/11 00:52:46;;;;;;;26.95;12.05;;;;;;;-142.75;100.00;78383.66;5098083;28;20895;-68
2022/11/11 00:55:13;;;;;;;32.25;12.70;;;;;;;-142.75;100.00;78391.53;5098139;28;20034;-68
2022/11/11 00:57:38;;;;;;;23.83;11.70;;;;;;;-142.75;100.00;78385.63;5079643;28;20034;-69
2022/11/11 01:00:04;;;;;;;34.10;13.73;;;;;;;-142.75;100.00;78383.66;5098434;28;20381;-68
2022/11/11 01:02:30;;;;;;;26.73;13.70;;;;;;;-142.75;100.00;78369.88;5080500;28;20405;-68
2022/11/11 01:04:55;;;;;;;24.33;13.63;;;;;;;-142.75;100.00;78375.78;5098166;28;20027;-68
2022/11/11 01:07:20;;;;;;;23.90;13.40;;;;;;;-142.75;100.00;78383.66;5079396;28;20057;-68
2022/11/11 01:09:46;;;;;;;27.10;13.77;;;;;;;-142.75;100.00;78381.69;5098007;28;20034;-68
2022/11/11 01:12:11;;;;;;;25.20;12.77;;;;;;;-142.75;100.00;78385.63;5078090;28;20047;-68
2022/11/11 01:14:36;;;;;;;26.98;13.40;;;;;;;-142.75;100.00;78393.50;5076944;28;20035;-68
2022/11/11 01:17:03;;;;;;;28.13;13.23;;;;;;;-142.75;100.00;78387.59;5076670;28;20714;-67
2022/11/11 01:19:29;;;;;;;27.85;13.68;;;;;;;-142.75;100.00;78405.34;5078178;28;20028;-68
2022/11/11 01:21:54;;;;;;;28.45;14.05;;;;;;;-142.75;100.00;78385.63;5077723;28;20031;-68
2022/11/11 01:24:19;;;;;;;23.70;13.18;;;;;;;-142.75;100.00;78389.56;5078045;28;20024;-68
2022/11/11 01:26:44;;;;;;;32.78;14.13;;;;;;;-142.75;100.00;78383.66;5076759;28;20549;-67
2022/11/11 01:29:10;;;;;;;24.45;14.15;;;;;;;-142.75;100.00;78383.66;5077781;28;20574;-68
2022/11/11 01:31:35;;;;;;;28.48;14.52;;;;;;;-142.75;100.00;78385.63;5077879;28;20077;-68
2022/11/11 01:34:00;;;;;;;26.00;13.63;;;;;;;-142.75;100.00;78393.50;5077405;28;20385;-68
2022/11/11 01:36:26;;;;;;;32.28;15.10;;;;;;;-142.75;100.00;78397.44;5077539;28;20074;-67
2022/11/11 01:38:54;;;;;;;28.95;13.90;;;;;;;-142.75;100.00;78405.34;5077890;28;20059;-67
2022/11/11 01:41:42;;;;;;;29.90;14.32;;;;;;;-142.75;100.00;78425.03;5077677;28;20051;-68
2022/11/11 01:44:10;;;;;;;28.73;13.52;;;;;;;-142.75;100.00;78401.38;5077776;28;20024;-68
2022/11/11 01:46:47;;;;;;;27.85;13.88;;;;;;;-142.75;100.00;78407.31;5077341;28;20766;-67
2022/11/11 01:49:38;;;;;;;32.50;14.35;;;;;;;-142.75;100.00;78405.34;5059445;28;20027;-69
2022/11/11 01:52:19;;;;;;;27.08;13.20;;;;;;;-142.75;100.00;78403.38;5058897;28;20016;-66
2022/11/11 01:55:14;;;;;;;39.83;14.45;;;;;;;-142.75;100.00;78409.28;5077417;28;20028;-67
2022/11/11 01:57:47;;;;;;;29.60;14.13;;;;;;;-142.75;100.00;78405.34;5077059;28;20043;-67
2022/11/11 02:00:15;;;;;;;34.92;15.20;;;;;;;-142.75;100.00;78421.09;5077414;28;20521;-67
2022/11/11 02:02:47;;;;;;;31.58;14.70;;;;;;;-142.75;100.00;78427.00;5076529;28;20024;-67
2022/11/11 02:08:03;;;;;;;34.60;15.27;;;;;;;-142.75;100.00;78415.19;5076745;28;20095;-66
2022/11/11 02:10:31;;;;;;;23.77;14.40;;;;;;;-142.75;100.00;78405.34;5078290;28;20032;-67
2022/11/11 02:15:40;;;;;;;29.77;14.27;;;;;;;-142.75;100.00;78403.38;5087719;28;20120;-67
2022/11/11 02:18:06;;;;;;;32.28;15.88;;;;;;;-142.75;100.00;78407.31;5096313;28;20024;-67
2022/11/11 02:20:43;;;;;;;30.17;15.13;;;;;;;-142.75;100.00;78399.44;5097658;28;20024;-67
2022/11/11 02:23:27;;;;;;;35.80;16.05;;;;;;;-142.75;100.00;78397.44;5078934;28;20019;-67
2022/11/11 02:25:54;;;;;;;36.58;15.85;;;;;;;-142.75;100.00;78399.44;5097028;28;20023;-70
2022/11/11 02:28:21;;;;;;;35.75;17.20;;;;;;;-142.75;100.00;78399.44;5077980;28;20623;-67
2022/11/11 02:30:46;;;;;;;32.15;15.20;;;;;;;-142.75;100.00;78401.38;5097241;28;20081;-69
2022/11/11 02:33:11;;;;;;;31.95;14.88;;;;;;;-142.75;100.00;78399.44;5097049;28;20499;-69
2022/11/11 02:35:41;;;;;;;38.75;16.33;;;;;;;-142.75;100.00;78397.44;5097036;28;20019;-67
2022/11/11 02:38:10;;;;;;;30.10;15.52;;;;;;;-142.75;100.00;78409.28;5096054;28;20020;-67
2022/11/11 02:43:30;;;;;;;34.35;17.60;;;;;;;-142.75;100.00;78413.22;5097352;28;20591;-67
2022/11/11 02:45:55;;;;;;;37.03;16.70;;;;;;;-142.75;100.00;78417.16;5097155;28;20407;-68
2022/11/11 02:48:21;;;;;;;38.03;17.95;;;;;;;-142.75;100.00;78415.19;5077923;28;20111;-68
2022/11/11 02:50:47;;;;;;;;;;;;;;;-142.75;100.00;78405.34;5097461;28;20080;-68
2022/11/11 02:53:12;;;;;;;30.58;16.25;;;;;;;-142.75;100.00;78415.19;5096872;28;19923;-68
2022/11/11 02:55:37;;;;;;;31.15;15.40;;;;;;;-142.75;100.00;78411.25;5096236;28;20465;-67
2022/11/11 02:58:03;;;;;;;28.20;13.98;;;;;;;-142.75;100.00;78417.16;5096097;28;20015;-67
2022/11/11 03:00:28;;;;;;;34.55;15.75;;;;;;;-142.75;100.00;78417.16;5078995;28;20031;-67
2022/11/11 03:02:53;;;;;;;30.50;14.55;;;;;;;-142.75;100.00;78427.00;5096924;28;20019;-67
2022/11/11 03:05:19;;;;;;;32.03;16.55;;;;;;;-142.75;100.00;78428.97;5096695;28;20026;-68
2022/11/11 03:07:44;;;;;;;33.13;15.00;;;;;;;-142.75;100.00;78427.00;5096146;28;20078;-68
2022/11/11 03:10:10;;;;;;;32.83;14.73;;;;;;;-142.75;100.00;78440.78;5079158;28;20385;-67
2022/11/11 03:12:35;;;;;;;34.83;16.23;;;;;;;-142.75;100.00;78438.81;5097300;28;20031;-67
2022/11/11 03:15:01;;;;;;;34.47;15.43;;;;;;;-142.75;100.00;78432.91;5082091;28;20081;-67
2022/11/11 03:17:39;;;;;;;30.50;15.20;;;;;;;-142.75;100.00;78432.91;5030037;28;20255;-67
2022/11/11 03:23:04;;;;;;;30.30;15.15;;;;;;;-142.75;100.00;78446.69;5037826;28;20467;-67
2022/11/11 03:25:39;;;;;;;33.40;15.57;;;;;;;-142.75;100.00;78452.59;5031425;28;20020;-68
2022/11/11 03:28:16;;;;;;;28.80;14.40;;;;;;;-142.75;100.00;78448.66;5079636;28;20124;-67
2022/11/11 03:30:42;;;;;;;;;;;;;;;-142.75;100.00;78446.69;5100813;28;20034;-67
2022/11/11 03:33:08;;;;;;;32.00;14.68;;;;;;;-142.75;100.00;78452.59;5099732;28;19918;-67
2022/11/11 03:35:34;;;;;;;29.63;14.27;;;;;;;-142.75;100.00;78442.75;5100432;28;20946;-67
2022/11/11 03:40:45;;;;;;;33.00;14.73;;;;;;;-142.75;100.00;78438.81;5101492;28;20092;-67
2022/11/11 03:43:11;;;;;;;32.45;14.40;;;;;;;-142.75;100.00;78432.91;5099724;28;20126;-67
2022/11/11 03:45:37;;;;;;;31.13;15.50;;;;;;;-142.75;100.00;78440.78;5100095;28;20763;-68
2022/11/11 03:48:03;;;;;;;29.20;14.27;;;;;;;-142.75;100.00;78448.66;5098811;28;20024;-67
2022/11/11 03:50:28;;;;;;;30.38;13.60;;;;;;;-142.75;100.00;78444.72;5099977;28;20560;-67
2022/11/11 03:52:53;;;;;;;29.52;13.93;;;;;;;-142.75;100.00;78444.72;5099785;28;20069;-67
2022/11/11 03:55:18;;;;;;;29.13;14.18;;;;;;;-142.75;100.00;78446.69;5099348;28;20016;-67
2022/11/11 03:57:45;;;;;;;30.55;14.30;;;;;;;-142.75;100.00;78456.53;5099230;28;20503;-68
2022/11/11 04:00:16;;;;;;;31.58;14.18;;;;;;;-142.75;100.00;78464.41;5099398;28;20526;-66
2022/11/11 04:11:02;;;;;;;27.05;14.32;;;;;;;-142.75;100.00;78458.50;5100842;28;20047;-66
2022/11/11 04:16:12;;;;;;;30.15;15.00;;;;;;;-142.75;100.00;78450.63;5078635;28;20043;-66
2022/11/11 04:27:05;;;;;;;30.65;15.32;;;;;;;-142.75;100.00;78440.78;5080883;28;20031;-67
2022/11/11 04:29:30;;;;;;;26.02;13.73;;;;;;;-142.75;100.00;78454.56;5078048;28;20023;-67
2022/11/11 04:34:52;;;;;;;33.55;14.40;;;;;;;-142.75;100.00;78464.41;5042673;28;20168;-67
2022/11/11 04:37:19;;;;;;;29.27;14.05;;;;;;;-142.75;100.00;78460.47;5037139;28;20031;-67
2022/11/11 04:42:30;;;;;;;28.27;13.52;;;;;;;-142.75;100.00;78464.41;5034156;28;20218;-67
2022/11/11 04:48:06;;;;;;;28.92;13.50;;;;;;;-142.75;100.00;78470.31;5096322;28;20035;-67
2022/11/11 04:50:42;;;;;;;31.15;14.13;;;;;;;-142.75;100.00;78476.22;5098171;28;20038;-66
2022/11/11 04:53:10;;;;;;;24.95;13.35;;;;;;;-142.75;100.00;78474.25;5098136;28;20023;-67
2022/11/11 04:58:25;;;;;;;31.67;14.45;;;;;;;-142.75;100.00;78476.22;5097372;28;20046;-66
2022/11/11 05:00:50;;;;;;;31.40;13.60;;;;;;;-142.75;100.00;78486.06;5097960;28;20027;-66
2022/11/11 05:03:17;;;;;;;33.08;14.23;;;;;;;-142.75;100.00;78484.09;5097720;28;20036;-66
2022/11/11 05:09:01;;;;;;;30.30;12.73;;;;;;;-142.75;100.00;78491.97;5096667;28;20104;-67
2022/11/11 05:11:28;;;;;;;24.38;12.93;;;;;;;-142.75;100.00;78482.13;5098614;28;20038;-65
2022/11/11 05:22:17;;;;;;;25.35;13.80;;;;;;;-142.75;100.00;78491.97;5078571;28;20035;-67
2022/11/11 05:27:27;;;;;;;27.10;14.50;;;;;;;-142.75;100.00;78488.03;5079072;28;20555;-65
2022/11/11 05:29:53;;;;;;;24.92;13.98;;;;;;;-142.75;100.00;78488.03;5079759;28;20040;-67
2022/11/11 05:32:20;;;;;;;23.42;12.57;;;;;;;-142.75;100.00;78493.97;5079628;28;20128;-68
2022/11/11 05:34:46;;;;;;;29.08;14.02;;;;;;;-142.75;100.00;78491.97;5079308;28;20038;-67
2022/11/11 05:37:11;;;;;;;29.90;14.43;;;;;;;-142.75;100.00;78503.81;5078672;28;20016;-67
2022/11/11 05:39:37;;;;;;;27.10;13.25;;;;;;;-142.75;100.00;78503.81;5079426;28;20740;-66
2022/11/11 05:42:03;;;;;;;29.13;13.88;;;;;;;-142.75;100.00;78511.69;5079549;28;20047;-67
2022/11/11 05:44:28;;;;;;;;;;;;;;;-142.75;100.00;78503.81;5062385;28;20032;-69
2022/11/11 05:46:53;;;;;;;26.27;13.05;;;;;;;-142.75;100.00;78509.72;5078928;28;19923;-67
2022/11/11 05:49:19;;;;;;;20.83;12.45;;;;;;;-142.75;100.00;78499.88;5079564;28;20043;-67
2022/11/11 05:51:45;;;;;;;32.05;12.85;;;;;;;-142.75;100.00;78513.66;5079313;28;20019;-67
2022/11/11 05:54:12;;;;;;;28.05;13.40;;;;;;;-142.75;100.00;78523.50;5079613;28;20360;-67
2022/11/11 05:56:38;;;;;;;32.25;12.05;;;;;;;-142.75;100.00;78523.50;5078343;28;20032;-66
2022/11/11 05:59:04;;;;;;;29.13;13.50;;;;;;;-142.75;100.00;78527.44;5079423;28;20629;-67
2022/11/11 06:01:30;;;;;;;;;;;;;;;-142.75;100.00;78513.66;5079835;28;20020;-69
2022/11/11 06:03:55;;;;;;;27.85;12.95;;;;;;;-142.75;100.00;78537.28;5079426;28;20312;-67
2022/11/11 06:06:21;;;;;;;24.50;13.90;;;;;;;-142.75;100.00;78539.25;5079048;28;20466;-66
2022/11/11 06:08:46;;;;;;;30.05;14.45;;;;;;;-142.75;100.00;78539.25;5078386;28;20127;-68
2022/11/11 06:11:11;;;;;;;27.90;13.80;;;;;;;-142.75;100.00;78531.38;5079214;28;20047;-67
2022/11/11 06:13:36;;;;;;;29.38;15.38;;;;;;;-142.75;100.00;78531.38;5077487;28;20039;-67
2022/11/11 06:16:03;;;;;;;31.88;15.60;;;;;;;-142.75;100.00;78523.50;5077501;22;23071;-66
2022/11/11 06:18:28;;;;;;;30.20;14.65;;;;;;;-142.75;100.00;78525.47;5089149;28;20046;-64
2022/11/11 06:20:56;;;;;;;29.08;15.43;;;;;;;-142.75;100.00;78531.38;5062625;28;20059;-64
2022/11/11 06:23:21;;;;;;;29.27;14.20;;;;;;;-142.75;100.00;78531.38;5060953;28;20024;-63
2022/11/11 06:28:32;;;;;;;29.92;14.77;;;;;;;-142.75;100.00;78527.44;5064001;28;20514;-64
2022/11/11 06:30:57;;;;;;;34.08;15.00;;;;;;;-142.75;100.00;78531.38;5064997;28;20032;-66
2022/11/11 06:33:23;;;;;;;35.72;16.60;;;;;;;-142.75;100.00;78535.31;5063289;28;20027;-64
2022/11/11 06:35:48;;;;;;;27.98;14.82;;;;;;;-142.75;100.00;78543.19;5044809;28;20066;-65
2022/11/11 06:38:14;;;;;;;28.52;15.98;;;;;;;-142.75;100.00;78543.19;5068955;28;20398;-63
2022/11/11 06:40:41;;;;;;;37.67;15.52;;;;;;;-142.75;100.00;78555.00;5047626;28;20035;-65
2022/11/11 06:43:07;;;;;;;32.50;17.02;;;;;;;-142.75;100.00;78551.06;5061598;28;20028;-63
2022/11/11 06:45:34;;;;;;;31.35;15.75;;;;;;;-142.75;100.00;78547.13;5065222;28;20016;-65
2022/11/11 06:47:59;;;;;;;29.10;16.15;;;;;;;-142.75;100.00;78562.88;5064546;28;20028;-65
2022/11/11 06:50:25;;;;;;;30.88;16.70;;;;;;;-142.75;100.00;78553.03;5046439;28;20460;-61
2022/11/11 06:52:51;;;;;;;31.70;16.30;;;;;;;-142.75;100.00;78551.06;5055916;28;20476;-65
2022/11/11 06:55:16;;;;;;;27.25;14.93;;;;;;;-142.75;100.00;78545.16;5051555;28;20015;-66
2022/11/11 06:57:42;;;;;;;27.40;14.68;;;;;;;-142.75;100.00;78562.88;5053971;28;20153;-65
2022/11/11 07:00:07;;;;;;;23.35;12.85;;;;;;;-142.75;100.00;78543.19;5067195;28;20027;-64
2022/11/11 07:02:33;;;;;;;28.35;13.25;;;;;;;-142.75;100.00;78553.03;5050629;28;20069;-64
2022/11/11 07:04:59;;;;;;;34.53;13.93;;;;;;;-142.75;100.00;78551.06;5065635;28;20860;-65
2022/11/11 07:07:24;;;;;;;25.38;13.35;;;;;;;-142.75;100.00;78562.88;5067930;28;20119;-63
2022/11/11 07:09:49;;;;;;;32.38;13.20;;;;;;;-142.75;100.00;78590.47;5052683;28;20352;-65
2022/11/11 07:12:16;;;;;;;25.23;13.55;;;;;;;-142.75;100.00;78594.41;5067216;28;20059;-65
2022/11/11 07:14:42;;;;;;;33.63;16.10;;;;;;;-142.75;100.00;78592.44;5074269;28;20138;-65
2022/11/11 07:17:07;;;;;;;26.25;14.45;;;;;;;-142.75;100.00;78604.25;5070053;28;20036;-68
2022/11/11 07:19:32;;;;;;;25.38;13.50;;;;;;;-142.75;100.00;78600.31;5049142;28;20098;-65
2022/11/11 07:21:58;;;;;;;26.47;14.40;;;;;;;-142.75;100.00;78594.41;5067597;28;20039;-68
2022/11/11 07:24:23;;;;;;;29.50;14.90;;;;;;;-142.75;100.00;78608.19;5064578;28;20394;-64
2022/11/11 07:26:48;;;;;;;28.85;14.23;;;;;;;-142.75;100.00;78602.28;5065782;28;20675;-66
2022/11/11 07:29:14;;;;;;;29.67;14.82;;;;;;;-142.75;100.00;78629.84;5070819;28;20061;-65
2022/11/11 07:31:40;;;;;;;26.50;15.07;;;;;;;-142.75;100.00;78620.00;5052944;28;20067;-65
2022/11/11 07:34:05;;;;;;;26.83;14.32;;;;;;;-142.75;100.00;78621.97;5051564;28;20032;-64
2022/11/11 07:36:30;;;;;;;33.05;16.83;;;;;;;-142.75;100.00;78629.84;5063689;28;20683;-65
2022/11/11 07:38:56;;;;;;;23.55;14.82;;;;;;;-142.75;100.00;78625.91;5067330;28;20142;-67
2022/11/11 07:41:21;;;;;;;28.20;15.10;;;;;;;-142.75;100.00;78629.84;5068045;28;20058;-67
2022/11/11 07:43:46;;;;;;;29.13;14.73;;;;;;;-142.75;100.00;78623.94;5067615;28;20155;-65
2022/11/11 07:46:12;;;;;;;27.17;14.90;;;;;;;-142.75;100.00;78633.78;5051700;28;20667;-65
2022/11/11 07:48:37;;;;;;;35.40;15.55;;;;;;;-142.75;100.00;78621.97;5047218;28;20071;-65
2022/11/11 07:51:02;;;;;;;28.77;15.00;;;;;;;-142.75;100.00;78614.09;5048600;28;20067;-65
2022/11/11 07:53:28;;;;;;;28.27;14.48;;;;;;;-142.75;100.00;78614.09;5049600;28;20036;-65
2022/11/11 07:55:53;;;;;;;30.85;15.48;;;;;;;-142.75;100.00;78614.09;5066068;28;20086;-65
2022/11/11 07:58:19;;;;;;;27.58;16.00;;;;;;;-142.75;100.00;78614.09;5049208;28;20126;-65
2022/11/11 08:00:44;;;;;;;30.52;16.00;;;;;;;-142.75;100.00;78612.13;5074037;28;20472;-66
2022/11/11 08:03:10;;;;;;;24.17;13.68;;;;;;;-142.75;100.00;78618.03;5061836;28;20025;-68
2022/11/11 08:05:35;;;;;;;27.83;13.98;;;;;;;-142.75;100.00;78612.13;5068272;28;20408;-68
2022/11/11 08:08:08;;;;;;;27.50;15.13;;;;;;;-142.75;100.00;78618.03;5046735;28;20032;-64
2022/11/11 08:10:34;;;;;;;25.73;14.45;;;;;;;-142.75;100.00;78602.28;5066142;28;20020;-65
2022/11/11 08:15:43;;;;;;;24.10;13.80;;;;;;;-142.75;100.00;78637.72;5068610;28;20058;-65
2022/11/11 08:18:09;;;;;;;24.75;13.68;;;;;;;-142.75;100.00;78637.72;5053149;28;20036;-67
2022/11/11 08:20:34;;;;;;;32.53;14.77;;;;;;;-142.75;100.00;78635.75;5078787;28;20084;-63
2022/11/11 08:23:02;;;;;;;24.60;13.40;;;;;;;-142.75;100.00;78637.72;5045779;28;20474;-68
2022/11/11 08:25:29;;;;;;;26.00;14.48;;;;;;;-142.75;100.00;78631.81;5045332;28;20371;-67
2022/11/11 08:28:03;;;;;;;26.27;13.60;;;;;;;-142.75;100.00;78641.66;5046264;28;20127;-65
2022/11/11 08:30:29;;;;;;;27.45;13.75;;;;;;;-142.75;100.00;78637.72;5046819;28;20019;-66
2022/11/11 08:33:05;;;;;;;26.38;12.73;;;;;;;-142.75;100.00;78623.94;5065775;28;20393;-67
2022/11/11 08:35:31;;;;;;;28.38;13.68;;;;;;;-142.75;100.00;78627.88;5066221;28;20028;-67
2022/11/11 08:38:00;;;;;;;;;;;;;;;-142.75;100.00;78620.00;5046935;28;20134;-66
2022/11/11 08:40:25;;;;;;;27.90;13.65;;;;;;;-142.75;100.00;78614.09;5064560;28;19916;-64
2022/11/11 08:42:55;;;;;;;24.88;12.85;;;;;;;-142.75;100.00;78602.28;5065305;28;20067;-67
2022/11/11 08:45:20;;;;;;;23.15;12.27;;;;;;;-142.75;100.00;78596.38;5076043;28;20398;-65
2022/11/11 08:47:45;;;;;;;26.30;13.85;;;;;;;-142.75;100.00;78586.53;5065104;28;20997;-68
2022/11/11 08:50:11;;;;;;;24.77;13.10;;;;;;;-142.75;100.00;78594.41;5059794;28;20024;-68
2022/11/11 08:52:36;;;;;;;25.02;13.48;;;;;;;-142.75;100.00;78592.44;5049972;28;22389;-68
2022/11/11 08:55:02;;;;;;;25.92;12.75;;;;;;;-142.75;100.00;78578.63;5061191;28;20017;-65
2022/11/11 08:57:27;;;;;;;26.00;13.02;;;;;;;-142.75;100.00;78588.50;5059850;28;20024;-68
2022/11/11 08:59:52;;;;;;;28.73;13.75;;;;;;;-142.75;100.00;78574.69;5047886;28;20099;-67
2022/11/11 09:02:18;;;;;;;24.13;12.30;;;;;;;-142.75;100.00;78578.63;5060869;28;20638;-66
2022/11/11 09:04:43;;;;;;;25.40;12.73;;;;;;;-142.75;100.00;78588.50;5051633;28;20059;-65
2022/11/11 09:07:10;;;;;;;24.55;12.98;;;;;;;-142.75;100.00;78578.63;5049823;28;20135;-67
2022/11/11 09:09:35;;;;;;;20.60;12.00;;;;;;;-142.75;100.00;78596.38;5062676;28;20034;-65
2022/11/11 09:12:01;;;;;;;27.42;12.00;;;;;;;-142.75;100.00;78604.25;5062155;28;20397;-65
2022/11/11 09:14:26;;;;;;;24.85;13.07;;;;;;;-142.75;100.00;78614.09;5062866;28;20036;-66
2022/11/11 09:16:52;;;;;;;24.88;11.68;;;;;;;-142.75;100.00;78618.03;5043559;28;20013;-68
2022/11/11 09:19:17;;;;;;;28.67;11.60;;;;;;;-142.75;100.00;78618.03;5045310;28;20036;-67
2022/11/11 09:21:42;;;;;;;23.92;12.55;;;;;;;-142.75;100.00;78614.09;5061824;28;20094;-67
2022/11/11 09:24:08;;;;;;;21.15;10.90;;;;;;;-142.75;100.00;78633.78;5060937;28;21440;-64
2022/11/11 09:26:33;;;;;;;20.67;11.10;;;;;;;-142.75;100.00;78625.91;5061931;28;20036;-64
2022/11/11 09:28:58;;;;;;;25.25;12.18;;;;;;;-142.75;100.00;78641.66;5062402;28;20869;-67
2022/11/11 09:31:24;;;;;;;24.67;11.65;;;;;;;-142.75;100.00;78625.91;5060507;28;20066;-68
2022/11/11 09:33:50;;;;;;;24.65;12.50;;;;;;;-142.75;100.00;78653.47;5060197;28;20058;-64
2022/11/11 09:36:15;;;;;;;25.73;11.57;;;;;;;-142.75;100.00;78647.56;5061912;28;20032;-67
2022/11/11 09:38:41;;;;;;;23.17;11.63;;;;;;;-142.75;100.00;78641.66;5064102;28;20759;-68
2022/11/11 09:41:44;;;;;;;22.67;10.75;;;;;;;-142.75;100.00;78631.81;5060486;28;20028;-68
2022/11/11 09:44:39;;;;;;;20.83;11.68;;;;;;;-142.75;100.00;78635.75;5017594;28;20032;-68
2022/11/11 09:47:39;;;;;;;20.83;11.10;;;;;;;-142.75;100.00;78639.69;5035652;28;20039;-67
2022/11/11 09:50:10;;;;;;;24.10;11.82;;;;;;;-142.75;100.00;78649.53;5005981;28;20865;-68
2022/11/11 09:52:53;;;;;;;24.33;10.77;;;;;;;-142.75;100.00;78631.81;5047709;28;20119;-68
2022/11/11 09:55:18;;;;;;;23.38;11.65;;;;;;;-142.75;100.00;78631.81;5066480;28;20756;-68
2022/11/11 09:57:51;;;;;;;23.40;11.93;;;;;;;-142.75;100.00;78625.91;5059736;28;20043;-68
2022/11/11 10:00:21;;;;;;;24.98;11.85;;;;;;;-142.75;100.00;78639.69;5060687;28;20369;-68
2022/11/11 10:02:51;;;;;;;18.27;10.55;;;;;;;-142.75;100.00;78637.72;5059038;28;20103;-68
2022/11/11 10:05:36;;;;;;;20.70;10.63;;;;;;;-142.75;100.00;78641.66;5060635;28;20012;-68
2022/11/11 10:08:15;;;;;;;23.08;11.02;;;;;;;-142.75;100.00;78635.75;5078358;28;20503;-66
2022/11/11 10:10:44;;;;;;;22.08;9.63;;;;;;;-142.75;100.00;78629.84;5065392;28;20803;-68
2022/11/11 10:13:14;;;;;;;21.63;10.57;;;;;;;-142.75;100.00;78616.06;5060210;28;20020;-68
2022/11/11 10:16:08;;;;;;;21.15;10.98;;;;;;;-142.75;100.00;78618.03;5078585;28;20028;-67
2022/11/11 10:18:49;;;;;;;19.05;9.95;;;;;;;-142.75;100.00;78612.13;5059998;28;20032;-65
2022/11/11 10:21:21;;;;;;;21.27;10.40;;;;;;;-142.75;100.00;78618.03;5061039;28;20725;-68
2022/11/11 10:23:48;;;;;;;18.33;9.55;;;;;;;-142.75;100.00;78625.91;5077994;28;20028;-67
2022/11/11 10:26:26;;;;;;;20.02;9.70;;;;;;;-142.75;100.00;78625.91;5079819;28;20027;-67
2022/11/11 10:28:52;;;;;;;18.15;9.77;;;;;;;-142.75;100.00;78625.91;5078755;28;20381;-69
2022/11/11 10:31:21;;;;;;;20.10;9.75;;;;;;;-142.75;100.00;78631.81;5072507;28;20022;-67
2022/11/11 10:34:00;;;;;;;20.73;9.80;;;;;;;-142.75;100.00;78625.91;5063948;28;20674;-69
2022/11/11 10:36:28;;;;;;;24.73;9.82;;;;;;;-142.75;100.00;78641.66;5057755;28;20020;-67
2022/11/11 10:38:58;;;;;;;19.95;10.43;;;;;;;-142.75;100.00;78633.78;5046964;28;20032;-67
2022/11/11 10:41:28;;;;;;;21.45;10.32;;;;;;;-142.75;100.00;78618.03;5068671;28;20052;-65
2022/11/11 10:43:53;;;;;;;19.05;9.70;;;;;;;-142.75;100.00;78618.03;5069460;28;20122;-66
2022/11/11 10:46:28;;;;;;;21.75;11.20;;;;;;;-142.75;100.00;78610.16;5067561;28;20024;-66
2022/11/11 10:49:01;;;;;;;16.05;9.38;;;;;;;-142.75;100.00;78627.88;5068758;28;20088;-66
2022/11/11 10:51:31;;;;;;;19.13;9.15;;;;;;;-142.75;100.00;78621.97;5079424;28;20801;-67
2022/11/11 10:54:16;;;;;;;19.23;9.63;;;;;;;-142.75;100.00;78618.03;5066125;28;20024;-69
2022/11/11 10:57:00;;;;;;;19.20;9.85;;;;;;;-142.75;100.00;78612.13;5054455;28;20356;-69
2022/11/11 10:59:35;;;;;;;18.95;9.60;;;;;;;-142.75;100.00;78602.28;5067244;28;20031;-69
2022/11/11 11:02:09;;;;;;;22.05;9.63;;;;;;;-142.75;100.00;78598.34;5066885;28;20021;-67
2022/11/11 11:04:43;;;;;;;16.98;8.27;;;;;;;-142.75;100.00;78594.41;5053243;28;20472;-68
2022/11/11 11:07:12;;;;;;;21.35;9.50;;;;;;;-142.75;100.00;78608.19;5065617;28;20055;-68
2022/11/11 11:09:51;;;;;;;16.42;8.68;;;;;;;-142.75;100.00;78614.09;5076704;28;20075;-69
2022/11/11 11:12:41;;;;;;;16.98;9.50;;;;;;;-142.75;100.00;78627.88;5067901;28;20036;-69
2022/11/11 11:15:19;;;;;;;16.75;8.48;;;;;;;-142.75;100.00;78631.81;5058637;28;20024;-67
2022/11/11 11:17:57;;;;;;;22.25;8.30;;;;;;;-142.75;100.00;78620.00;5051238;28;20036;-69
2022/11/11 11:20:23;;;;;;;17.88;8.75;;;;;;;-142.75;100.00;78618.03;5066805;28;20036;-69
2022/11/11 11:22:54;;;;;;;21.23;9.00;;;;;;;-142.75;100.00;78588.50;5070154;28;20453;-68
2022/11/11 11:25:21;;;;;;;18.35;8.10;;;;;;;-142.75;100.00;78572.72;5065928;28;20398;-66
2022/11/11 11:27:49;;;;;;;18.40;8.18;;;;;;;-142.75;100.00;78562.88;5066027;28;20021;-69
2022/11/11 11:30:25;;;;;;;14.75;8.25;;;;;;;-142.75;100.00;78529.41;5066541;28;20552;-69
2022/11/11 11:32:57;;;;;;;17.50;7.85;;;;;;;-142.75;100.00;78503.81;5059400;28;20537;-69
2022/11/11 11:35:32;;;;;;;13.55;7.20;;;;;;;-142.75;100.00;78493.97;5068419;28;20480;-68
2022/11/11 11:37:57;;;;;;;12.52;7.68;;;;;;;-142.75;100.00;78488.03;5067533;28;20063;-69
2022/11/11 11:40:23;;;;;;;13.48;7.47;;;;;;;-142.75;100.00;78488.03;5073917;28;20118;-68
2022/11/11 11:42:48;;;;;;;14.05;8.10;;;;;;;-142.75;100.00;78493.97;5067302;28;20028;-69
2022/11/11 11:45:23;;;;;;;13.65;7.97;;;;;;;-142.75;100.00;78456.53;5074900;28;20469;-69
2022/11/11 11:48:10;;;;;;;16.00;8.98;;;;;;;-142.75;100.00;78425.03;5072398;28;20028;-68
2022/11/11 11:50:46;;;;;;;14.52;8.13;;;;;;;-142.75;100.00;78362.00;5066318;28;20028;-67
2022/11/11 11:53:44;;;;;;;19.20;8.73;;;;;;;-142.75;100.00;78336.41;5071285;28;20857;-67
2022/11/11 11:56:24;;;;;;;14.30;7.60;;;;;;;-142.75;100.00;78295.06;5020598;28;20050;-67
2022/11/11 11:58:49;;;;;;;17.02;8.35;;;;;;;-142.75;100.00;78259.59;5071095;28;20498;-66
2022/11/11 12:01:28;;;;;;;14.97;8.03;;;;;;;-142.75;100.00;78249.75;5050292;28;20032;-69
2022/11/11 12:04:21;;;;;;;13.93;8.27;;;;;;;-142.75;100.00;78226.13;5071064;28;20282;-68
2022/11/11 12:07:20;;;;;;;16.02;7.63;;;;;;;-142.75;100.00;78220.22;5065986;28;20020;-68
2022/11/11 12:10:00;;;;;;;11.50;7.65;;;;;;;-142.75;100.00;78232.03;5051921;28;20028;-69
2022/11/11 12:12:55;;;;;;;11.52;7.25;;;;;;;-142.75;100.00;78184.78;5069275;28;20028;-69
2022/11/11 12:15:40;;;;;;;12.25;7.63;;;;;;;-142.75;100.00;78172.94;5070999;28;20032;-67
2022/11/11 12:18:50;;;;;;;15.30;8.07;;;;;;;-142.75;100.00;78200.53;5026843;28;20024;-68
2022/11/11 12:21:20;;;;;;;12.60;7.75;;;;;;;-142.75;100.00;78192.66;4990222;28;20102;-67
2022/11/11 12:24:08;;;;;;;13.38;7.97;;;;;;;-142.75;100.00;78149.31;5017616;28;20583;-67
2022/11/11 12:26:55;;;;;;;15.32;7.63;;;;;;;-142.75;100.00;78133.56;5013714;28;20051;-66
2022/11/11 12:29:50;;;;;;;14.05;7.40;;;;;;;-142.75;100.00;78098.13;5016320;28;20051;-68